Skip Navigation LinksHome page > Weather > Current weather Skip Navigation Links

Current Weather

Jakutsk, Russia

For information only: do not use for flight planning or navigation.
Latest weather
Observation time Monday, December 18, 2017 9:00 PM JST
Local time Monday, December 18, 2017 9:26 PM JST
Flight conditions Low Instrument Meteorological Conditions
Winds
Wind speed calm
Visibility 0.4 mi.
Present weather fog
Sky condition
Ceiling unlimited
Temperature -38°F
Dewpoint -47°F
Altimeter 30.12 in.Hg
Precipitation
QF 9:36 AM
Derived measurements
Relative humidity 59%
Wind chill -38°F
Density altitude -7146 ft.
Remarks
No significant changes expected in the next two hours.
METAR UEEE 181200Z 00000MPS 0600 0500NE R23L/1200U FG NSC M39/M44 Q1020 R23L/490150 NOSIG RMK QFE756

Settings

Location code

InnerDrive.Weather 4.0.6144.1 Release CLR 4.0.30319.36366
Copyright ©2015 Inner Drive Technology. All rights reserved. Portions Copyright ©1986-2015 David Braverman.

Find weather

Site navigation


Skip Navigation Links

Place info

Page info

PayPal - The safer, easier way to pay online!

Return home.

Copyright ©2017 Inner Drive Technology. Purveyors of fine, hand-crafted computer software. Page printed 2017-12-18T12:26:12 UTC.